createdAt,value
2019-03-12T00:00:00.701Z,99.99
2019-03-12T00:01:01.940Z,99.99
2019-03-12T00:02:03.347Z,99.99
2019-03-12T00:03:04.764Z,99.99
2019-03-12T00:04:06.168Z,99.99
2019-03-12T00:05:07.561Z,99.99
2019-03-12T00:06:08.980Z,99.99
2019-03-12T00:07:10.388Z,99.99
2019-03-12T00:08:11.807Z,99.99
2019-03-12T00:09:13.226Z,99.99
2019-03-12T00:10:14.635Z,99.99
2019-03-12T00:11:16.050Z,99.99
2019-03-12T00:12:17.524Z,99.99
2019-03-12T00:13:18.940Z,99.99
2019-03-12T00:14:20.362Z,99.99
2019-03-12T00:15:21.801Z,99.99
2019-03-12T00:16:23.197Z,99.99
2019-03-12T00:17:24.658Z,99.99
2019-03-12T00:18:28.222Z,99.99
2019-03-12T00:19:27.424Z,99.99
2019-03-12T00:20:28.865Z,99.99
2019-03-12T00:21:30.288Z,99.99
2019-03-12T00:22:32.543Z,99.99
2019-03-12T00:23:33.950Z,99.99
2019-03-12T00:24:35.407Z,99.99
2019-03-12T00:25:36.860Z,99.99
2019-03-12T00:26:38.278Z,99.99
2019-03-12T00:27:39.692Z,99.99
2019-03-12T00:28:41.100Z,99.99
2019-03-12T00:29:42.492Z,99.99
2019-03-12T00:30:43.886Z,99.99
2019-03-12T00:31:45.307Z,99.99
2019-03-12T00:32:46.716Z,99.99
2019-03-12T00:33:48.140Z,99.99
2019-03-12T00:34:49.535Z,99.99
2019-03-12T00:35:50.935Z,99.99
2019-03-12T00:36:52.343Z,99.99
2019-03-12T00:37:53.735Z,99.99
2019-03-12T00:38:55.994Z,99.99
2019-03-12T00:39:57.391Z,99.99
2019-03-12T00:40:58.784Z,99.99
2019-03-12T00:42:00.213Z,99.99
2019-03-12T00:43:01.601Z,99.99
2019-03-12T00:44:02.999Z,99.99
2019-03-12T00:45:04.406Z,99.99
2019-03-12T00:46:05.801Z,99.99
2019-03-12T00:47:07.206Z,99.99
2019-03-12T00:48:08.626Z,99.99
2019-03-12T00:49:10.010Z,99.99
2019-03-12T00:50:11.410Z,99.99
2019-03-12T00:51:12.830Z,99.99
2019-03-12T00:52:14.218Z,99.99
2019-03-12T00:53:15.625Z,99.99
2019-03-12T00:54:17.532Z,99.99
2019-03-12T00:55:18.950Z,99.99
2019-03-12T00:56:20.346Z,99.99
2019-03-12T00:57:21.786Z,99.99
2019-03-12T00:58:23.184Z,99.99
2019-03-12T00:59:24.614Z,99.99
2019-03-12T01:00:26.044Z,99.99
2019-03-12T01:01:27.447Z,99.99
2019-03-12T01:02:28.842Z,99.99
2019-03-12T01:03:30.247Z,99.99
2019-03-12T01:04:31.644Z,99.99
2019-03-12T01:05:33.051Z,99.99
2019-03-12T01:06:34.419Z,99.99
2019-03-12T01:07:35.819Z,99.99
2019-03-12T01:08:37.253Z,99.99
2019-03-12T01:09:38.670Z,99.99
2019-03-12T01:10:41.069Z,99.99
2019-03-12T01:11:42.463Z,99.99
2019-03-12T01:12:43.885Z,99.99
2019-03-12T01:13:45.281Z,99.99
2019-03-12T01:14:46.694Z,99.99
2019-03-12T01:15:48.094Z,99.99
2019-03-12T01:16:49.501Z,99.99
2019-03-12T01:17:50.893Z,99.99
2019-03-12T01:18:52.278Z,99.99
2019-03-12T01:19:53.664Z,99.99
2019-03-12T01:20:55.059Z,99.99
2019-03-12T01:21:56.458Z,99.99
2019-03-12T01:22:57.850Z,99.99
2019-03-12T01:23:59.265Z,99.99
2019-03-12T01:25:00.709Z,99.99
2019-03-12T01:26:02.116Z,99.99
2019-03-12T01:27:03.498Z,99.99
2019-03-12T01:28:04.932Z,99.99
2019-03-12T01:29:06.340Z,99.99
2019-03-12T01:30:07.729Z,99.99
2019-03-12T01:31:09.118Z,99.99
2019-03-12T01:32:10.541Z,99.99
2019-03-12T01:33:11.935Z,99.99
2019-03-12T01:34:13.374Z,99.99
2019-03-12T01:35:14.784Z,99.99
2019-03-12T01:36:16.192Z,99.99
2019-03-12T01:37:17.578Z,99.99
2019-03-12T01:38:18.983Z,99.99
2019-03-12T01:39:20.411Z,99.99
2019-03-12T01:40:21.813Z,99.99
2019-03-12T01:41:23.223Z,99.99
2019-03-12T01:42:25.504Z,99.99
2019-03-12T01:43:26.926Z,99.99
2019-03-12T01:44:28.326Z,99.99
2019-03-12T01:45:29.748Z,99.99
2019-03-12T01:46:31.144Z,99.99
2019-03-12T01:47:32.529Z,99.99
2019-03-12T01:48:33.962Z,99.99
2019-03-12T01:49:35.376Z,99.99
2019-03-12T01:50:36.794Z,99.99
2019-03-12T01:51:38.208Z,99.99
2019-03-12T01:52:39.636Z,99.99
2019-03-12T01:53:41.061Z,99.99
2019-03-12T01:54:42.476Z,99.99
2019-03-12T01:55:43.873Z,99.99
2019-03-12T01:56:45.265Z,99.99
2019-03-12T01:57:46.668Z,99.99
2019-03-12T01:58:48.072Z,99.99
2019-03-12T01:59:49.479Z,99.99
2019-03-12T02:00:50.896Z,99.99
2019-03-12T02:01:52.313Z,99.99
2019-03-12T02:02:53.715Z,99.99
2019-03-12T02:03:55.165Z,99.99
2019-03-12T02:04:56.665Z,99.99
2019-03-12T02:05:57.973Z,99.99
2019-03-12T02:06:59.357Z,99.99
2019-03-12T02:08:00.770Z,99.99
2019-03-12T02:09:02.187Z,99.99
2019-03-12T02:10:03.599Z,99.99
2019-03-12T02:11:04.991Z,99.99
2019-03-12T02:12:06.419Z,99.99
2019-03-12T02:13:07.826Z,99.99
2019-03-12T02:14:09.234Z,99.99
2019-03-12T02:15:10.652Z,99.99
2019-03-12T02:16:12.132Z,99.99
2019-03-12T02:17:13.536Z,99.99
2019-03-12T02:18:14.946Z,99.99
2019-03-12T02:19:16.336Z,99.99
2019-03-12T02:20:17.746Z,99.99
2019-03-12T02:21:19.181Z,99.99
2019-03-12T02:22:20.580Z,99.99
2019-03-12T02:23:22.016Z,99.99
2019-03-12T02:24:23.412Z,99.99
2019-03-12T02:25:24.826Z,99.99
2019-03-12T02:26:26.220Z,99.99
2019-03-12T02:27:27.635Z,99.99
2019-03-12T02:28:29.038Z,99.99
2019-03-12T02:29:31.317Z,99.99
2019-03-12T02:30:32.718Z,99.99
2019-03-12T02:31:34.155Z,99.99
2019-03-12T02:32:35.570Z,99.99
2019-03-12T02:33:36.992Z,99.99
2019-03-12T02:34:38.450Z,99.99
2019-03-12T02:35:39.827Z,99.99
2019-03-12T02:36:41.237Z,99.99
2019-03-12T02:37:42.643Z,99.99
2019-03-12T02:38:44.045Z,99.99
2019-03-12T02:39:45.502Z,99.99
2019-03-12T02:40:46.910Z,99.99
2019-03-12T02:41:48.328Z,99.99
2019-03-12T02:42:49.749Z,99.99
2019-03-12T02:43:51.164Z,99.99
2019-03-12T02:44:52.572Z,99.99
2019-03-12T02:45:53.990Z,99.99
2019-03-12T02:46:55.385Z,99.99
2019-03-12T02:47:56.778Z,99.99
2019-03-12T02:48:58.213Z,99.99
2019-03-12T02:49:59.603Z,99.99
2019-03-12T02:51:01.197Z,99.99
2019-03-12T02:52:02.469Z,99.99
2019-03-12T02:53:03.876Z,99.99
2019-03-12T02:54:05.288Z,99.99
2019-03-12T02:55:06.703Z,99.99
2019-03-12T02:56:08.095Z,99.99
2019-03-12T02:57:09.537Z,99.99
2019-03-12T02:58:10.962Z,99.99
2019-03-12T02:59:12.385Z,99.99
2019-03-12T03:00:13.781Z,99.99
2019-03-12T03:01:15.201Z,99.99
2019-03-12T03:02:16.627Z,99.99
2019-03-12T03:03:18.045Z,99.99
2019-03-12T03:04:19.487Z,99.99
2019-03-12T03:05:20.931Z,99.99
2019-03-12T03:06:22.301Z,99.99
2019-03-12T03:07:23.730Z,99.99
2019-03-12T03:08:25.850Z,99.99
2019-03-12T03:09:27.242Z,99.99
2019-03-12T03:10:28.683Z,99.99
2019-03-12T03:11:30.101Z,99.99
2019-03-12T03:12:31.517Z,99.99
2019-03-12T03:13:32.917Z,99.99
2019-03-12T03:14:34.340Z,99.99
2019-03-12T03:15:35.748Z,99.99
2019-03-12T03:16:37.157Z,99.99
2019-03-12T03:17:39.521Z,99.99
2019-03-12T03:18:40.951Z,99.99
2019-03-12T03:19:42.279Z,99.99
2019-03-12T03:20:43.684Z,99.99
2019-03-12T03:21:45.120Z,99.99
2019-03-12T03:22:46.498Z,99.99
2019-03-12T03:23:47.889Z,99.99
2019-03-12T03:24:49.284Z,99.99
2019-03-12T03:25:50.681Z,99.99
2019-03-12T03:26:52.115Z,99.99
2019-03-12T03:27:53.515Z,99.99
2019-03-12T03:28:54.944Z,99.99
2019-03-12T03:29:56.341Z,99.99
2019-03-12T03:30:57.791Z,99.99
2019-03-12T03:31:59.180Z,99.99
2019-03-12T03:33:00.640Z,99.99
2019-03-12T03:34:02.028Z,99.99
2019-03-12T03:35:03.519Z,99.99
2019-03-12T03:36:04.853Z,99.99
2019-03-12T03:37:06.246Z,99.99
2019-03-12T03:38:07.655Z,99.99
2019-03-12T03:39:09.040Z,99.99
2019-03-12T03:40:10.428Z,99.99
2019-03-12T03:41:11.823Z,99.99
2019-03-12T03:42:13.220Z,99.99
2019-03-12T03:43:14.629Z,99.99
2019-03-12T03:44:16.012Z,99.99
2019-03-12T03:45:17.418Z,99.99
2019-03-12T03:46:18.894Z,99.99
2019-03-12T03:47:20.289Z,99.99
2019-03-12T03:48:21.692Z,99.99
2019-03-12T03:49:23.681Z,99.99
2019-03-12T03:50:24.977Z,99.99
2019-03-12T03:51:26.391Z,99.99
2019-03-12T03:52:27.830Z,99.99
2019-03-12T03:53:29.248Z,99.99
2019-03-12T03:54:30.671Z,99.99
2019-03-12T03:55:32.071Z,99.99
2019-03-12T03:56:33.505Z,99.99
2019-03-12T03:57:34.909Z,99.99
2019-03-12T03:58:36.329Z,99.99
2019-03-12T03:59:37.770Z,99.99
2019-03-12T04:00:39.206Z,99.99
2019-03-12T04:01:40.616Z,99.99
2019-03-12T04:02:42.035Z,99.99
2019-03-12T04:03:43.446Z,99.99
2019-03-12T04:04:44.865Z,99.99
2019-03-12T04:05:47.071Z,99.99
2019-03-12T04:06:48.502Z,99.99
2019-03-12T04:07:49.943Z,99.99
2019-03-12T04:08:51.304Z,99.99
2019-03-12T04:09:52.714Z,99.99
2019-03-12T04:10:54.132Z,99.99
2019-03-12T04:11:55.525Z,99.99
2019-03-12T04:12:56.942Z,99.99
2019-03-12T04:13:58.333Z,99.99
2019-03-12T04:14:59.726Z,99.99
2019-03-12T04:16:01.123Z,99.99
2019-03-12T04:17:02.521Z,99.99
2019-03-12T04:18:03.946Z,99.99
2019-03-12T04:19:05.333Z,99.99
2019-03-12T04:20:06.729Z,99.99
2019-03-12T04:21:09.015Z,99.99
2019-03-12T04:22:10.424Z,99.99
2019-03-12T04:23:15.643Z,99.99
2019-03-12T04:24:13.195Z,99.99
2019-03-12T04:25:14.621Z,99.99
2019-03-12T04:26:16.016Z,99.99
2019-03-12T04:27:17.570Z,99.99
2019-03-12T04:28:18.856Z,99.99
2019-03-12T04:29:20.227Z,99.99
2019-03-12T04:30:21.625Z,99.99
2019-03-12T04:31:23.003Z,99.99
2019-03-12T04:32:24.381Z,99.99
2019-03-12T04:33:25.765Z,99.99
2019-03-12T04:34:27.179Z,99.99
2019-03-12T04:35:28.571Z,99.99
2019-03-12T04:36:29.959Z,99.99
2019-03-12T04:37:32.065Z,99.99
2019-03-12T04:38:33.474Z,99.99
2019-03-12T04:39:34.874Z,99.99
2019-03-12T04:40:36.294Z,99.99
2019-03-12T04:41:37.674Z,99.99
2019-03-12T04:42:39.076Z,99.99
2019-03-12T04:43:40.471Z,99.99
2019-03-12T04:44:41.898Z,99.99
2019-03-12T04:45:43.349Z,99.99
2019-03-12T04:46:44.756Z,99.99
2019-03-12T04:47:46.169Z,99.99
2019-03-12T04:48:47.574Z,99.99
2019-03-12T04:49:48.992Z,99.99
2019-03-12T04:50:50.412Z,99.99
2019-03-12T04:51:51.800Z,99.99
2019-03-12T04:52:53.200Z,99.99
2019-03-12T04:53:54.617Z,99.99
2019-03-12T04:54:56.014Z,99.99
2019-03-12T04:55:57.406Z,99.99
2019-03-12T04:56:58.845Z,99.99
2019-03-12T04:58:00.251Z,99.99
2019-03-12T04:59:01.654Z,99.99
2019-03-12T05:00:03.070Z,99.99
2019-03-12T05:01:04.483Z,99.99
2019-03-12T05:02:05.877Z,99.99
2019-03-12T05:03:07.311Z,99.99
2019-03-12T05:04:08.703Z,99.99
2019-03-12T05:05:10.099Z,99.99
2019-03-12T05:06:11.531Z,99.99
2019-03-12T05:07:12.929Z,99.99
2019-03-12T05:08:14.324Z,99.99
2019-03-12T05:09:15.727Z,99.99
2019-03-12T05:10:17.133Z,99.99
2019-03-12T05:11:18.530Z,99.99
2019-03-12T05:12:19.976Z,99.99
2019-03-12T05:13:21.424Z,99.99
2019-03-12T05:14:22.907Z,99.99
2019-03-12T05:15:24.298Z,99.99
2019-03-12T05:16:25.694Z,99.99
2019-03-12T05:17:27.085Z,99.99
2019-03-12T05:18:28.521Z,99.99
2019-03-12T05:19:29.901Z,99.99
2019-03-12T05:20:31.292Z,99.99
2019-03-12T05:21:32.684Z,99.99
2019-03-12T05:22:34.126Z,99.99
2019-03-12T05:23:35.513Z,99.99
2019-03-12T05:24:36.913Z,99.99
2019-03-12T05:25:38.416Z,99.99
2019-03-12T05:26:39.829Z,99.99
2019-03-12T05:27:41.218Z,99.99
2019-03-12T05:28:42.655Z,99.99
2019-03-12T05:29:44.049Z,99.99
2019-03-12T05:30:45.499Z,99.99
2019-03-12T05:31:46.895Z,99.99
2019-03-12T05:32:48.333Z,99.99
2019-03-12T05:33:49.738Z,99.99
2019-03-12T05:34:51.141Z,99.99
2019-03-12T05:35:52.623Z,99.99
2019-03-12T05:36:54.007Z,99.99
2019-03-12T05:37:55.442Z,99.99
2019-03-12T05:38:56.806Z,99.99
2019-03-12T05:39:58.251Z,99.99
2019-03-12T05:41:00.320Z,99.99
2019-03-12T05:42:01.745Z,99.99
2019-03-12T05:43:03.152Z,99.99
2019-03-12T05:44:04.597Z,99.99
2019-03-12T05:45:06.000Z,99.99
2019-03-12T05:46:07.380Z,99.99
2019-03-12T05:47:08.808Z,99.99
2019-03-12T05:48:10.315Z,99.99
2019-03-12T05:49:11.769Z,99.99
2019-03-12T05:50:13.261Z,99.99
2019-03-12T05:51:14.650Z,99.99
2019-03-12T05:52:16.054Z,99.99
2019-03-12T05:53:17.452Z,99.99
2019-03-12T05:54:18.877Z,99.99
2019-03-12T05:55:20.369Z,99.99
2019-03-12T05:56:21.764Z,99.99
2019-03-12T05:57:23.177Z,99.99
2019-03-12T05:58:24.565Z,99.99
2019-03-12T05:59:25.995Z,99.99
2019-03-12T06:00:27.408Z,99.99
2019-03-12T06:01:28.950Z,99.99
2019-03-12T06:02:30.344Z,99.99
2019-03-12T06:03:31.734Z,99.99
2019-03-12T06:04:33.144Z,99.99
2019-03-12T06:05:34.580Z,99.99
2019-03-12T06:06:36.004Z,99.99
2019-03-12T06:07:37.417Z,99.99
2019-03-12T06:08:38.891Z,99.99
2019-03-12T06:09:40.305Z,99.99
2019-03-12T06:10:41.794Z,99.99
2019-03-12T06:11:43.269Z,99.99
2019-03-12T06:12:45.619Z,99.99
2019-03-12T06:13:47.025Z,99.99
2019-03-12T06:14:48.611Z,99.99
2019-03-12T06:15:53.023Z,99.99
2019-03-12T06:16:51.543Z,99.99
2019-03-12T06:17:53.041Z,99.99
2019-03-12T06:18:54.411Z,99.99
2019-03-12T06:19:55.882Z,99.99
2019-03-12T06:20:57.280Z,99.99
2019-03-12T06:21:58.737Z,99.99
2019-03-12T06:23:00.195Z,99.99
2019-03-12T06:24:01.609Z,99.99
2019-03-12T06:25:03.014Z,99.99
2019-03-12T06:26:04.463Z,99.99
2019-03-12T06:27:05.966Z,99.99
2019-03-12T06:28:07.379Z,99.99
2019-03-12T06:29:09.649Z,99.99
2019-03-12T06:30:10.961Z,99.99
2019-03-12T06:31:12.349Z,99.99
2019-03-12T06:32:13.772Z,99.99
2019-03-12T06:33:15.178Z,99.99
2019-03-12T06:34:16.638Z,99.99
2019-03-12T06:35:18.041Z,99.99
2019-03-12T06:36:19.448Z,99.99
2019-03-12T06:37:20.838Z,99.99
2019-03-12T06:38:22.249Z,99.99
2019-03-12T06:39:23.691Z,99.99
2019-03-12T06:40:25.072Z,99.99
2019-03-12T06:41:26.540Z,99.99
2019-03-12T06:42:27.982Z,99.99
2019-03-12T06:43:29.411Z,99.99
2019-03-12T06:44:31.487Z,99.99
2019-03-12T06:45:32.902Z,99.99
2019-03-12T06:46:34.301Z,99.99
2019-03-12T06:47:35.727Z,99.99
2019-03-12T06:48:37.149Z,99.99
2019-03-12T06:49:38.582Z,99.99
2019-03-12T06:50:39.987Z,99.99
2019-03-12T06:51:41.401Z,99.99
2019-03-12T06:52:42.821Z,99.99
2019-03-12T06:53:44.223Z,99.99
2019-03-12T06:54:45.621Z,99.99
2019-03-12T06:55:47.036Z,99.99
2019-03-12T06:56:48.438Z,99.99
2019-03-12T06:57:49.867Z,99.99
2019-03-12T06:58:51.271Z,99.99
2019-03-12T06:59:52.660Z,99.99
2019-03-12T07:00:54.069Z,99.99
2019-03-12T07:01:55.471Z,99.99
2019-03-12T07:02:56.870Z,99.99
2019-03-12T07:03:58.304Z,99.99
2019-03-12T07:04:59.716Z,99.99
2019-03-12T07:06:01.101Z,99.99
2019-03-12T07:07:06.678Z,99.99
2019-03-12T07:08:06.246Z,99.99
2019-03-12T07:09:05.275Z,99.99
2019-03-12T07:10:06.692Z,99.99
2019-03-12T07:11:08.083Z,99.99
2019-03-12T07:12:09.466Z,99.99
2019-03-12T07:13:10.877Z,99.99
2019-03-12T07:14:12.281Z,99.99
2019-03-12T07:15:13.674Z,99.99
2019-03-12T07:16:15.097Z,99.99
2019-03-12T07:17:16.509Z,99.99
2019-03-12T07:18:17.921Z,99.99
2019-03-12T07:19:19.312Z,99.99
2019-03-12T07:20:20.734Z,99.99
2019-03-12T07:21:22.143Z,99.99
2019-03-12T07:22:23.603Z,99.99
2019-03-12T07:23:25.013Z,99.99
2019-03-12T07:24:26.417Z,99.99
2019-03-12T07:25:27.814Z,99.99
2019-03-12T07:26:29.207Z,99.99
2019-03-12T07:27:30.613Z,99.99
2019-03-12T07:28:32.011Z,99.99
2019-03-12T07:29:33.400Z,99.99
2019-03-12T07:30:34.788Z,99.99
2019-03-12T07:31:36.201Z,99.99
2019-03-12T07:32:37.627Z,99.99
2019-03-12T07:33:39.019Z,99.99
2019-03-12T07:34:40.418Z,99.99
2019-03-12T07:35:41.815Z,99.99
2019-03-12T07:36:43.261Z,99.99
2019-03-12T07:37:44.662Z,99.99
2019-03-12T07:38:46.068Z,99.99
2019-03-12T07:39:47.454Z,99.99
2019-03-12T07:40:48.851Z,99.99
2019-03-12T07:41:50.267Z,99.99
2019-03-12T07:42:51.671Z,99.99
2019-03-12T07:43:53.073Z,99.99
2019-03-12T07:44:54.645Z,99.99
2019-03-12T07:45:56.044Z,99.99
2019-03-12T07:46:57.444Z,99.99
2019-03-12T07:47:58.837Z,99.99
2019-03-12T07:49:00.233Z,99.99
2019-03-12T07:50:01.638Z,99.99
2019-03-12T07:51:03.043Z,99.99
2019-03-12T07:52:04.424Z,99.99
2019-03-12T07:53:05.811Z,99.99
2019-03-12T07:54:07.230Z,99.99
2019-03-12T07:55:08.628Z,99.99
2019-03-12T07:56:10.033Z,99.99
2019-03-12T07:57:11.406Z,99.99
2019-03-12T07:58:12.816Z,99.99
2019-03-12T07:59:14.271Z,99.99
2019-03-12T08:00:15.653Z,99.99
2019-03-12T08:01:17.041Z,99.99
2019-03-12T08:02:18.465Z,99.99
2019-03-12T08:03:19.880Z,99.99
2019-03-12T08:04:21.281Z,99.99
2019-03-12T08:05:22.696Z,99.99
2019-03-12T08:06:24.078Z,99.99
2019-03-12T08:07:25.587Z,99.99
2019-03-12T08:08:27.008Z,99.99
2019-03-12T08:09:28.492Z,99.99
2019-03-12T08:10:29.774Z,99.99
2019-03-12T08:11:31.164Z,99.99
2019-03-12T08:12:34.389Z,99.99
2019-03-12T08:13:34.009Z,99.99
2019-03-12T08:14:35.345Z,99.99
2019-03-12T08:15:36.741Z,99.99
2019-03-12T08:16:38.135Z,99.99
2019-03-12T08:17:39.555Z,99.99
2019-03-12T08:18:40.959Z,99.99
2019-03-12T08:19:42.385Z,99.99
2019-03-12T08:20:44.310Z,99.99
2019-03-12T08:21:45.732Z,99.99
2019-03-12T08:22:47.127Z,99.99
2019-03-12T08:23:48.526Z,99.99
2019-03-12T08:24:49.932Z,99.99
2019-03-12T08:25:51.334Z,99.99
2019-03-12T08:26:52.740Z,99.99
2019-03-12T08:27:54.170Z,99.99
2019-03-12T08:28:55.548Z,99.99
2019-03-12T08:29:57.038Z,99.99
2019-03-12T08:30:58.491Z,99.99
2019-03-12T08:31:59.874Z,99.99
2019-03-12T08:33:01.269Z,99.99
2019-03-12T08:34:02.680Z,99.99
2019-03-12T08:35:04.055Z,99.99
2019-03-12T08:36:05.454Z,99.99
2019-03-12T08:37:06.877Z,99.99
2019-03-12T08:38:08.263Z,99.99
2019-03-12T08:39:09.671Z,99.99
2019-03-12T08:40:11.075Z,99.99
2019-03-12T08:41:12.490Z,99.99
2019-03-12T08:42:13.891Z,99.99
2019-03-12T08:43:15.277Z,99.99
2019-03-12T08:44:16.694Z,99.99
2019-03-12T08:45:18.112Z,99.99
2019-03-12T08:46:22.304Z,99.99
2019-03-12T08:47:20.939Z,99.99
2019-03-12T08:48:22.351Z,99.99
2019-03-12T08:49:23.767Z,99.99
2019-03-12T08:50:25.169Z,99.99
2019-03-12T08:51:26.571Z,99.99
2019-03-12T08:52:28.004Z,99.99
2019-03-12T08:53:29.427Z,99.99
2019-03-12T08:54:30.841Z,99.99
2019-03-12T08:55:32.262Z,99.99
2019-03-12T08:56:33.742Z,99.99
2019-03-12T08:57:35.180Z,99.99
2019-03-12T08:58:36.572Z,99.99
2019-03-12T08:59:37.975Z,99.99
2019-03-12T09:00:39.359Z,99.99
2019-03-12T09:01:41.915Z,99.99
2019-03-12T09:02:42.192Z,99.99
2019-03-12T09:03:43.584Z,99.99
2019-03-12T09:04:44.974Z,99.99
2019-03-12T09:05:46.379Z,99.99
2019-03-12T09:06:47.822Z,99.99
2019-03-12T09:07:49.226Z,99.99
2019-03-12T09:08:50.671Z,99.99
2019-03-12T09:09:52.069Z,99.99
2019-03-12T09:10:53.474Z,99.99
2019-03-12T09:11:54.937Z,99.99
2019-03-12T09:12:56.327Z,99.99
2019-03-12T09:13:57.760Z,99.99
2019-03-12T09:14:59.197Z,99.99
2019-03-12T09:16:00.605Z,99.99
2019-03-12T09:17:02.024Z,99.99
2019-03-12T09:18:03.501Z,99.99
2019-03-12T09:19:04.994Z,99.99
2019-03-12T09:20:06.403Z,99.99
2019-03-12T09:21:07.832Z,99.99
2019-03-12T09:22:09.244Z,99.99
2019-03-12T09:23:10.642Z,99.99
2019-03-12T09:24:12.040Z,99.99
2019-03-12T09:25:13.478Z,99.99
2019-03-12T09:26:14.889Z,99.99
2019-03-12T09:27:16.302Z,99.99
2019-03-12T09:28:17.730Z,99.99
2019-03-12T09:29:19.147Z,98.27
2019-03-12T09:30:20.566Z,95.51
2019-03-12T09:31:22.007Z,94.03
2019-03-12T09:32:23.421Z,90.03
2019-03-12T09:33:24.863Z,88.32
2019-03-12T09:34:26.297Z,87.94
2019-03-12T09:35:27.773Z,87.94
2019-03-12T09:36:29.231Z,87.94
2019-03-12T09:37:30.663Z,88.70
2019-03-12T09:38:32.109Z,88.60
2019-03-12T09:39:34.418Z,88.08
2019-03-12T09:40:35.839Z,85.74
2019-03-12T09:41:37.267Z,84.88
2019-03-12T09:42:38.725Z,83.65
2019-03-12T09:43:40.189Z,82.41
2019-03-12T09:44:41.614Z,82.37
2019-03-12T09:45:43.145Z,82.84
2019-03-12T09:46:44.583Z,82.56
2019-03-12T09:47:45.988Z,83.22
2019-03-12T09:48:47.390Z,84.04
2019-03-12T09:49:48.843Z,84.52
2019-03-12T09:50:50.245Z,85.37
2019-03-12T09:51:51.656Z,85.66
2019-03-12T09:52:53.079Z,86.04
2019-03-12T09:53:54.509Z,85.71
2019-03-12T09:54:55.908Z,87.32
2019-03-12T09:55:57.380Z,87.32
2019-03-12T09:56:58.802Z,87.71
2019-03-12T09:58:00.280Z,86.38
2019-03-12T09:59:01.719Z,86.28
2019-03-12T10:00:15.099Z,87.13
2019-03-12T10:01:04.471Z,87.42
2019-03-12T10:02:05.881Z,87.13
2019-03-12T10:03:07.276Z,87.23
2019-03-12T10:04:08.716Z,86.70
2019-03-12T10:05:10.124Z,86.32
2019-03-12T10:06:11.534Z,85.56
2019-03-12T10:07:12.944Z,84.52
2019-03-12T10:08:14.621Z,83.56
2019-03-12T10:09:16.013Z,82.70
2019-03-12T10:10:17.437Z,83.47
2019-03-12T10:11:18.847Z,83.98
2019-03-12T10:12:20.258Z,82.35
2019-03-12T10:13:21.732Z,79.10
2019-03-12T10:14:23.146Z,75.26
2019-03-12T10:15:24.589Z,69.21
2019-03-12T10:16:26.014Z,65.90
2019-03-12T10:17:27.433Z,62.40
2019-03-12T10:18:28.841Z,60.70
2019-03-12T10:19:30.252Z,59.77
2019-03-12T10:20:31.705Z,58.62
2019-03-12T10:21:33.092Z,59.27
2019-03-12T10:22:34.518Z,59.75
2019-03-12T10:23:35.927Z,59.08
2019-03-12T10:24:37.384Z,57.35
2019-03-12T10:25:38.907Z,56.68
2019-03-12T10:26:40.188Z,56.68
2019-03-12T10:27:41.598Z,55.87
2019-03-12T10:28:43.004Z,54.82
2019-03-12T10:29:44.425Z,54.82
2019-03-12T10:30:45.832Z,54.79
2019-03-12T10:31:47.255Z,54.99
2019-03-12T10:32:48.673Z,54.12
2019-03-12T10:33:50.096Z,53.33
2019-03-12T10:34:51.503Z,53.59
2019-03-12T10:35:52.982Z,54.36
2019-03-12T10:36:54.331Z,54.74
2019-03-12T10:37:55.760Z,54.61
2019-03-12T10:38:57.185Z,55.00
2019-03-12T10:39:58.604Z,55.54
2019-03-12T10:41:00.027Z,55.83
2019-03-12T10:42:01.438Z,56.91
2019-03-12T10:43:02.912Z,57.20
2019-03-12T10:44:04.346Z,57.77
2019-03-12T10:45:05.759Z,56.62
2019-03-12T10:46:07.171Z,56.34
2019-03-12T10:47:08.620Z,55.98
2019-03-12T10:48:10.040Z,55.88
2019-03-12T10:49:11.483Z,55.98
2019-03-12T10:50:12.904Z,55.98
2019-03-12T10:51:14.348Z,55.02
2019-03-12T10:52:15.776Z,54.07
2019-03-12T10:53:17.196Z,53.37
2019-03-12T10:54:18.624Z,54.23
2019-03-12T10:55:20.911Z,54.04
2019-03-12T10:56:22.414Z,54.90
2019-03-12T10:57:23.836Z,54.61
2019-03-12T10:58:25.239Z,54.97
2019-03-12T10:59:27.189Z,54.78
2019-03-12T11:00:28.635Z,55.13
2019-03-12T11:01:30.172Z,55.80
2019-03-12T11:02:31.551Z,55.52
2019-03-12T11:03:32.957Z,55.23
2019-03-12T11:04:34.398Z,55.23
2019-03-12T11:05:45.271Z,56.02
2019-03-12T11:06:37.209Z,55.93
2019-03-12T11:07:38.625Z,56.12
2019-03-12T11:08:40.067Z,55.93
2019-03-12T11:09:41.513Z,55.26
2019-03-12T11:10:42.943Z,54.88
2019-03-12T11:11:44.437Z,55.29
2019-03-12T11:12:45.850Z,54.90
2019-03-12T11:13:47.296Z,54.83
2019-03-12T11:14:48.678Z,53.40
2019-03-12T11:15:50.127Z,51.39
2019-03-12T11:16:51.549Z,51.22
2019-03-12T11:17:52.964Z,50.07
2019-03-12T11:18:54.414Z,50.17
2019-03-12T11:19:55.840Z,49.76
2019-03-12T11:20:58.685Z,50.72
2019-03-12T11:21:58.654Z,52.44
2019-03-12T11:23:00.109Z,52.22
2019-03-12T11:24:01.629Z,51.93
2019-03-12T11:25:03.039Z,52.96
2019-03-12T11:26:04.449Z,53.63
2019-03-12T11:27:05.861Z,54.11
2019-03-12T11:28:07.281Z,54.02
2019-03-12T11:29:08.719Z,54.18
2019-03-12T11:30:10.161Z,54.37
2019-03-12T11:31:11.565Z,54.56
2019-03-12T11:32:13.013Z,54.08
2019-03-12T11:33:14.439Z,54.75
2019-03-12T11:34:15.847Z,54.47
2019-03-12T11:35:17.317Z,53.70
2019-03-12T11:36:18.732Z,53.03
2019-03-12T11:37:20.226Z,52.46
2019-03-12T11:38:21.654Z,52.96
2019-03-12T11:39:23.102Z,52.87
2019-03-12T11:40:24.545Z,52.77
2019-03-12T11:41:25.908Z,52.67
2019-03-12T11:42:27.343Z,51.93
2019-03-12T11:43:28.770Z,50.70
2019-03-12T11:44:30.186Z,50.12
2019-03-12T11:45:36.782Z,50.41
2019-03-12T11:46:41.922Z,51.36
2019-03-12T11:47:35.125Z,51.15
2019-03-12T11:48:36.517Z,51.24
2019-03-12T11:49:38.240Z,51.81
2019-03-12T11:50:39.279Z,52.10
2019-03-12T11:51:40.727Z,52.58
2019-03-12T11:52:52.275Z,52.39
2019-03-12T11:53:43.505Z,52.96
2019-03-12T11:54:45.018Z,52.67
2019-03-12T11:55:46.302Z,53.44
2019-03-12T11:56:47.724Z,53.44
2019-03-12T11:57:49.165Z,53.32
2019-03-12T11:58:50.627Z,53.44
2019-03-12T11:59:52.037Z,53.13
2019-03-12T12:00:53.481Z,53.41
2019-03-12T12:01:54.979Z,52.75
2019-03-12T12:03:00.431Z,52.91
2019-03-12T12:03:58.449Z,53.67
2019-03-12T12:04:59.922Z,54.15
2019-03-12T12:06:01.436Z,54.82
2019-03-12T12:07:02.837Z,54.53
2019-03-12T12:08:04.262Z,54.34
2019-03-12T12:09:05.679Z,54.82
2019-03-12T12:10:07.100Z,54.60
2019-03-12T12:11:08.502Z,55.18
2019-03-12T12:12:09.904Z,55.94
2019-03-12T12:13:11.324Z,55.84
2019-03-12T12:14:12.732Z,56.04
2019-03-12T12:15:14.284Z,56.10
2019-03-12T12:16:15.607Z,56.77
2019-03-12T12:17:16.952Z,57.43
2019-03-12T12:18:18.359Z,56.96
2019-03-12T12:19:20.340Z,57.09
2019-03-12T12:20:29.690Z,56.60
2019-03-12T12:21:23.145Z,56.80
2019-03-12T12:22:24.548Z,56.60
2019-03-12T12:23:25.958Z,56.32
2019-03-12T12:24:27.355Z,56.41
2019-03-12T12:25:28.786Z,56.60
2019-03-12T12:26:30.218Z,56.60
2019-03-12T12:27:31.615Z,56.89
2019-03-12T12:28:33.026Z,57.28
2019-03-12T12:29:34.433Z,57.15
2019-03-12T12:30:35.857Z,56.96
2019-03-12T12:31:37.272Z,57.53
2019-03-12T12:32:38.687Z,58.01
2019-03-12T12:33:40.093Z,58.20
2019-03-12T12:34:41.507Z,58.68
2019-03-12T12:35:42.923Z,58.87
2019-03-12T12:36:44.347Z,58.23
2019-03-12T12:37:45.760Z,58.61
2019-03-12T12:38:47.163Z,58.61
2019-03-12T12:39:48.579Z,58.70
2019-03-12T12:40:50.029Z,57.46
2019-03-12T12:41:51.436Z,57.18
2019-03-12T12:42:52.860Z,57.46
2019-03-12T12:43:54.268Z,57.75
2019-03-12T12:44:56.588Z,56.89
2019-03-12T12:45:57.989Z,56.67
2019-03-12T12:46:59.390Z,56.77
2019-03-12T12:48:00.820Z,56.87
2019-03-12T12:49:02.238Z,57.06
2019-03-12T12:50:03.646Z,57.43
2019-03-12T12:51:05.069Z,57.34
2019-03-12T12:52:06.427Z,57.41
2019-03-12T12:53:07.862Z,57.98
2019-03-12T12:54:09.830Z,58.46
2019-03-12T12:55:10.618Z,58.17
2019-03-12T12:56:12.030Z,58.26
2019-03-12T12:57:13.451Z,58.94
2019-03-12T12:58:14.884Z,58.75
2019-03-12T12:59:16.312Z,58.84
2019-03-12T13:00:17.767Z,59.12
2019-03-12T13:01:19.193Z,58.65
2019-03-12T13:02:20.597Z,58.84
2019-03-12T13:03:23.206Z,58.94
2019-03-12T13:04:24.663Z,59.03
2019-03-12T13:05:26.168Z,59.31
2019-03-12T13:06:27.559Z,59.22
2019-03-12T13:07:28.984Z,60.08
2019-03-12T13:08:30.388Z,59.86
2019-03-12T13:09:31.824Z,59.95
2019-03-12T13:10:33.237Z,60.14